Time;durP1;ratioP1;P1;durP2;ratioP2;P2;SDS_P1;SDS_P2;PMS_P1;PMS_P2;Temp;Humidity;BMP_temperature;BMP_pressure;BME280_temperature;BME280_humidity;BME280_pressure;Samples;Min_cycle;Max_cycle;Signal;HPM_P1;HPM_P2
2022/06/11 00:21:09;;;;;;;;;;;;;;;15.55;82.62;101030.70;84130;1339;22695;-77
2022/06/11 00:23:40;;;;;;;;;;;;;;;15.55;82.54;101031.73;84635;1328;22660;-76
2022/06/11 00:26:06;;;;;;;;;;;;;;;15.56;82.65;101032.40;84999;1325;25265;-76
2022/06/11 00:28:30;;;;;;;;;;;;;;;15.55;82.45;101032.43;85015;1324;22598;-76
2022/06/11 05:56:04;;;;;;;;;;;;;;;34.73;27.97;101062.44;84623;1327;22846;-78
2022/06/11 06:27:56;;;;;;;;;;;;;;;33.32;27.24;101084.09;85147;1323;22712;-77
2022/06/11 06:30:28;;;;;;;;;;;;;;;32.20;28.20;101084.45;84958;1326;23085;-76
2022/06/11 06:33:38;;;;;;;;;;;;;;;31.88;29.93;101085.91;84369;1332;23888;-79
2022/06/11 06:35:42;;;;;;;;;;;;;;;31.96;30.06;101090.02;84571;1331;22586;-80
2022/06/11 06:38:33;;;;;;;;;;;;;;;31.61;29.95;101088.98;84586;1332;22963;-81
2022/06/11 06:45:48;;;;;;;;;;;;;;;32.01;31.08;101085.96;83689;1343;22935;-78
2022/06/11 06:52:05;;;;;;;;;;;;;;;34.25;27.44;101087.30;82851;1356;22611;-76
2022/06/11 06:54:15;;;;;;;;;;;;;;;34.61;26.68;101089.69;83294;1345;22597;-76
2022/06/11 06:56:18;;;;;;;;;;;;;;;35.01;26.49;101090.16;84325;1332;22689;-75
2022/06/11 06:58:22;;;;;;;;;;;;;;;35.52;26.46;101097.24;84629;1329;22587;-75
2022/06/11 07:00:25;;;;;;;;;;;;;;;35.22;26.02;101092.03;84796;1326;24375;-76
2022/06/11 07:02:32;;;;;;;;;;;;;;;34.61;25.55;101093.34;84791;1326;22599;-76
2022/06/11 07:04:35;;;;;;;;;;;;;;;34.29;25.81;101094.90;84771;1326;25420;-76
2022/06/11 07:06:41;;;;;;;;;;;;;;;34.40;26.53;101095.33;84783;1330;22577;-76
2022/06/11 07:08:44;;;;;;;;;;;;;;;34.93;26.13;101094.76;84806;1326;22978;-76
2022/06/11 07:10:48;;;;;;;;;;;;;;;35.32;25.96;101101.54;84770;1324;22581;-76
2022/06/11 07:12:52;;;;;;;;;;;;;;;35.55;26.32;101105.96;84770;1326;22681;-76
2022/06/11 07:14:55;;;;;;;;;;;;;;;35.67;25.46;101108.23;84790;1326;24256;-77
2022/06/11 07:16:59;;;;;;;;;;;;;;;34.88;25.21;101106.10;84791;1329;22580;-77
2022/06/11 07:19:09;;;;;;;;;;;;;;;33.86;25.92;101107.92;84798;1322;24221;-76
2022/06/11 07:21:15;;;;;;;;;;;;;;;32.77;27.52;101108.64;84782;1327;22570;-75
2022/06/11 07:23:19;;;;;;;;;;;;;;;32.60;28.14;101106.08;84786;1327;23934;-76
2022/06/11 07:25:23;;;;;;;;;;;;;;;33.11;28.01;101109.66;84799;1329;24384;-75
2022/06/11 07:27:28;;;;;;;;;;;;;;;33.42;27.87;101108.48;84787;1322;22587;-75
2022/06/11 07:29:32;;;;;;;;;;;;;;;33.52;26.90;101109.08;84825;1327;22590;-75
2022/06/11 07:31:36;;;;;;;;;;;;;;;32.80;27.12;101106.55;84804;1326;22985;-75
2022/06/11 07:33:41;;;;;;;;;;;;;;;31.99;27.72;101110.20;84798;1326;25414;-75
2022/06/11 07:35:44;;;;;;;;;;;;;;;31.58;29.16;101113.70;84806;1326;22608;-76
2022/06/11 07:37:48;;;;;;;;;;;;;;;32.08;30.13;101113.30;84789;1326;22572;-75
2022/06/11 07:39:58;;;;;;;;;;;;;;;32.92;28.15;101111.00;84801;1326;22625;-77
2022/06/11 07:42:02;;;;;;;;;;;;;;;33.56;27.08;101108.80;84835;1329;22574;-78
2022/06/11 07:44:17;;;;;;;;;;;;;;;34.07;26.08;101106.60;84834;1330;25408;-77
2022/06/11 07:46:27;;;;;;;;;;;;;;;34.31;25.45;101106.24;84827;1329;22718;-78
2022/06/11 07:48:31;;;;;;;;;;;;;;;34.54;25.41;101101.89;84798;1327;22606;-77
2022/06/11 07:50:35;;;;;;;;;;;;;;;34.74;25.11;101104.55;84790;1327;22576;-78
2022/06/11 07:52:38;;;;;;;;;;;;;;;34.93;24.10;101104.92;84764;1327;22582;-77
2022/06/11 07:54:42;;;;;;;;;;;;;;;35.23;24.12;101108.86;84799;1327;24978;-76
2022/06/11 07:56:45;;;;;;;;;;;;;;;35.44;23.40;101108.55;84801;1325;22553;-76
2022/06/11 07:58:49;;;;;;;;;;;;;;;35.60;23.09;101110.21;84810;1327;24321;-76
2022/06/11 08:00:53;;;;;;;;;;;;;;;35.72;22.75;101111.83;84789;1327;23991;-76
2022/06/11 08:02:56;;;;;;;;;;;;;;;35.74;22.61;101110.88;84789;1327;22611;-77
2022/06/11 08:04:59;;;;;;;;;;;;;;;35.79;22.27;101105.41;84798;1325;22600;-77
2022/06/11 08:07:04;;;;;;;;;;;;;;;35.92;22.40;101102.55;84790;1323;25494;-77
2022/06/11 08:09:07;;;;;;;;;;;;;;;35.98;22.97;101104.46;84783;1326;22599;-77
2022/06/11 08:11:10;;;;;;;;;;;;;;;36.35;23.29;101107.63;84812;1327;22577;-77
2022/06/11 08:13:14;;;;;;;;;;;;;;;36.86;23.14;101106.13;84784;1325;24252;-77
2022/06/11 08:15:17;;;;;;;;;;;;;;;37.28;21.91;101101.74;84785;1326;25282;-77
2022/06/11 08:17:20;;;;;;;;;;;;;;;37.52;20.05;101100.21;84790;1326;23926;-78
2022/06/11 08:19:24;;;;;;;;;;;;;;;37.32;19.64;101100.34;84794;1326;24479;-78
2022/06/11 08:21:27;;;;;;;;;;;;;;;37.14;20.29;101095.23;84804;1330;22570;-77
2022/06/11 08:23:30;;;;;;;;;;;;;;;36.95;20.54;101094.84;84795;1326;24367;-77
2022/06/11 08:25:34;;;;;;;;;;;;;;;36.76;20.95;101095.66;84825;1327;22725;-79
2022/06/11 08:27:37;;;;;;;;;;;;;;;36.82;21.88;101097.48;84833;1329;25366;-77
2022/06/11 08:29:41;;;;;;;;;;;;;;;36.69;22.00;101096.02;84803;1326;22562;-75
2022/06/11 08:31:44;;;;;;;;;;;;;;;36.91;21.78;101095.55;84772;1329;22641;-75
2022/06/11 08:33:47;;;;;;;;;;;;;;;37.21;21.59;101086.89;84785;1327;22781;-75
2022/06/11 08:35:51;;;;;;;;;;;;;;;37.49;22.32;101089.52;84779;1326;22635;-75
2022/06/11 08:37:54;;;;;;;;;;;;;;;37.59;20.91;101096.48;84718;1326;22652;-75
2022/06/11 08:39:58;;;;;;;;;;;;;;;37.49;19.76;101096.89;84807;1327;22593;-75
2022/06/11 08:42:01;;;;;;;;;;;;;;;37.25;19.39;101093.68;84809;1326;22583;-74
2022/06/11 08:44:08;;;;;;;;;;;;;;;37.12;20.29;101090.17;84800;1326;24379;-74
2022/06/11 08:46:12;;;;;;;;;;;;;;;37.21;19.35;101087.70;84822;1326;25429;-74
2022/06/11 08:48:20;;;;;;;;;;;;;;;36.96;19.70;101087.13;84801;1327;22610;-74
2022/06/11 08:50:27;;;;;;;;;;;;;;;36.94;20.53;101085.23;84817;1324;22582;-74
2022/06/11 08:52:31;;;;;;;;;;;;;;;36.88;20.75;101084.48;84797;1321;22807;-74
2022/06/11 08:54:38;;;;;;;;;;;;;;;36.65;21.03;101081.83;84786;1321;22660;-76
2022/06/11 08:56:47;;;;;;;;;;;;;;;36.45;20.79;101078.80;84780;1325;22633;-75
2022/06/11 08:58:59;;;;;;;;;;;;;;;36.36;21.85;101079.52;84810;1326;25421;-75
2022/06/11 09:01:10;;;;;;;;;;;;;;;36.62;22.72;101073.16;84789;1325;22593;-74
2022/06/11 09:03:21;;;;;;;;;;;;;;;36.97;22.01;101072.33;84801;1321;24178;-76
2022/06/11 09:05:34;;;;;;;;;;;;;;;37.12;21.79;101072.63;84788;1325;23011;-76
2022/06/11 09:07:43;;;;;;;;;;;;;;;37.19;21.12;101077.00;84803;1322;23027;-76
2022/06/11 09:09:54;;;;;;;;;;;;;;;37.15;20.63;101073.61;84803;1326;25429;-75
2022/06/11 09:12:11;;;;;;;;;;;;;;;36.89;20.78;101073.40;84809;1326;22708;-75
2022/06/11 09:14:22;;;;;;;;;;;;;;;36.33;20.51;101071.16;84780;1326;22594;-75
2022/06/11 09:16:36;;;;;;;;;;;;;;;35.74;21.13;101074.60;84831;1325;22557;-76
2022/06/11 09:18:55;;;;;;;;;;;;;;;35.19;21.40;101072.27;84791;1325;22575;-76
2022/06/11 09:21:04;;;;;;;;;;;;;;;34.62;22.53;101060.42;84840;1325;22897;-76
2022/06/11 09:23:27;;;;;;;;;;;;;;;34.29;23.88;101058.54;84817;1327;22593;-76
2022/06/11 09:25:37;;;;;;;;;;;;;;;34.14;24.12;101060.25;84801;1324;22649;-76
2022/06/11 09:27:42;;;;;;;;;;;;;;;33.87;23.73;101059.27;84815;1326;22605;-76
2022/06/11 09:29:53;;;;;;;;;;;;;;;33.62;24.40;101059.02;84804;1322;23874;-76
2022/06/11 09:32:02;;;;;;;;;;;;;;;33.49;25.07;101048.93;84804;1326;23942;-76
2022/06/11 09:34:09;;;;;;;;;;;;;;;33.36;25.13;101046.98;84796;1325;22986;-76
2022/06/11 09:36:14;;;;;;;;;;;;;;;33.19;25.48;101047.17;84782;1326;22866;-76
2022/06/11 09:38:21;;;;;;;;;;;;;;;33.11;26.22;101046.91;84792;1325;23051;-76
2022/06/11 09:40:38;;;;;;;;;;;;;;;33.07;25.08;101045.55;84806;1327;25262;-76
2022/06/11 09:42:55;;;;;;;;;;;;;;;32.84;24.85;101045.16;84795;1327;22611;-76
2022/06/11 09:45:02;;;;;;;;;;;;;;;32.61;23.61;101048.83;84826;1326;22593;-76
2022/06/11 09:47:10;;;;;;;;;;;;;;;32.35;23.44;101054.56;84812;1326;22641;-76
2022/06/11 09:49:18;;;;;;;;;;;;;;;32.08;23.77;101051.77;84786;1322;22583;-76
2022/06/11 09:51:37;;;;;;;;;;;;;;;31.87;23.55;101061.82;84851;1326;22622;-77
2022/06/11 09:54:29;;;;;;;;;;;;;;;31.55;23.12;101064.98;84811;1327;22622;-76
2022/06/11 09:57:23;;;;;;;;;;;;;;;30.98;23.71;101065.96;84497;1333;24121;-77
2022/06/11 10:26:22;;;;;;;;;;;;;;;29.52;28.63;101050.02;83322;1350;22624;-76
2022/06/11 10:31:53;;;;;;;;;;;;;;;29.48;28.71;101047.17;83249;1351;24366;-76
2022/06/11 10:37:29;;;;;;;;;;;;;;;29.06;27.64;101050.66;83398;1348;22718;-78
2022/06/11 10:39:39;;;;;;;;;;;;;;;28.61;27.76;101048.86;83587;1348;22709;-78
2022/06/11 10:41:46;;;;;;;;;;;;;;;28.45;28.86;101048.93;84015;1339;22593;-77
2022/06/11 10:43:54;;;;;;;;;;;;;;;28.45;29.68;101040.95;84246;1337;24246;-76
2022/06/11 10:48:50;;;;;;;;;;;;;;;28.56;28.78;101042.16;84458;1335;22992;-75
2022/06/11 10:51:05;;;;;;;;;;;;;;;28.50;27.72;101042.49;84783;1328;22638;-75
2022/06/11 10:53:30;;;;;;;;;;;;;;;28.28;28.48;101043.36;84830;1328;22845;-76
2022/06/11 10:55:48;;;;;;;;;;;;;;;28.21;28.67;101041.48;84857;1326;24260;-77
2022/06/11 10:57:57;;;;;;;;;;;;;;;28.05;29.33;101039.82;84865;1326;22567;-76
2022/06/11 11:00:07;;;;;;;;;;;;;;;28.04;29.76;101037.66;84842;1326;22622;-77
2022/06/11 11:02:19;;;;;;;;;;;;;;;28.08;30.61;101038.66;84788;1330;22658;-74
2022/06/11 11:04:30;;;;;;;;;;;;;;;28.08;30.02;101036.73;84761;1329;25428;-76
2022/06/11 11:06:34;;;;;;;;;;;;;;;28.08;30.54;101036.00;84748;1327;22797;-75
2022/06/11 11:09:02;;;;;;;;;;;;;;;;;;;;;
2022/06/11 11:22:43;;;;;;;;;;;;;;;26.97;32.03;101027.97;84346;1336;22569;-76
2022/06/11 11:25:16;;;;;;;;;;;;;;;26.92;30.95;101020.52;83254;1350;22620;-77
2022/06/11 11:43:12;;;;;;;;;;;;;;;27.02;32.56;101014.36;82772;1356;22602;-78
2022/06/11 11:45:28;;;;;;;;;;;;;;;26.86;32.41;101013.69;83045;1349;25323;-78
2022/06/11 11:47:39;;;;;;;;;;;;;;;26.67;32.35;101010.59;84032;1334;22618;-78
2022/06/11 11:49:46;;;;;;;;;;;;;;;26.56;32.16;101013.06;84546;1334;25469;-78
2022/06/11 11:51:50;;;;;;;;;;;;;;;26.49;33.26;101013.75;84600;1332;24294;-78
2022/06/11 11:53:57;;;;;;;;;;;;;;;26.38;33.50;101013.87;84573;1333;22585;-78
2022/06/11 11:56:06;;;;;;;;;;;;;;;26.45;34.55;101012.71;84672;1324;22614;-78
2022/06/11 11:58:14;;;;;;;;;;;;;;;26.51;34.31;101011.97;84023;1326;1117542;-78
2022/06/11 12:00:26;;;;;;;;;;;;;;;26.36;34.71;101011.23;84757;1326;22678;-77
2022/06/11 12:02:42;;;;;;;;;;;;;;;26.18;35.01;101012.89;84831;1325;23004;-78
2022/06/11 12:04:53;;;;;;;;;;;;;;;26.03;35.33;101011.41;84830;1328;25413;-76
2022/06/11 12:06:57;;;;;;;;;;;;;;;25.97;35.96;101011.30;84828;1327;24540;-79
2022/06/11 12:09:07;;;;;;;;;;;;;;;25.94;36.06;101012.80;84815;1326;25497;-79
2022/06/11 12:11:30;;;;;;;;;;;;;;;25.89;35.78;101007.89;84874;1327;24248;-79
2022/06/11 12:13:44;;;;;;;;;;;;;;;25.88;35.80;101005.09;84779;1328;25378;-78
2022/06/11 12:15:54;;;;;;;;;;;;;;;25.97;36.53;101005.75;84810;1328;22858;-79
2022/06/11 12:18:02;;;;;;;;;;;;;;;26.09;36.38;101002.55;84791;1327;25417;-78
2022/06/11 12:20:13;;;;;;;;;;;;;;;26.14;35.84;101004.88;84804;1326;23651;-77
2022/06/11 12:22:22;;;;;;;;;;;;;;;26.11;36.07;100999.98;84803;1330;22871;-78
2022/06/11 12:24:28;;;;;;;;;;;;;;;26.14;35.70;101006.81;84825;1330;22583;-76
2022/06/11 12:26:35;;;;;;;;;;;;;;;26.08;35.71;101002.42;84793;1327;22894;-76
2022/06/11 12:28:41;;;;;;;;;;;;;;;25.98;35.98;101000.41;84777;1324;22843;-77
2022/06/11 12:30:44;;;;;;;;;;;;;;;25.92;36.26;101004.45;84787;1326;22644;-76
2022/06/11 12:32:50;;;;;;;;;;;;;;;25.91;36.77;101005.98;84806;1325;22601;-76
2022/06/11 12:34:56;;;;;;;;;;;;;;;25.98;36.88;101006.16;84811;1329;25445;-77
2022/06/11 12:37:14;;;;;;;;;;;;;;;26.06;36.48;101003.86;84781;1328;24238;-76
2022/06/11 12:39:41;;;;;;;;;;;;;;;26.08;36.78;101008.88;84788;1326;22572;-77
2022/06/11 12:41:47;;;;;;;;;;;;;;;26.09;36.17;101011.22;84821;1326;22594;-76
2022/06/11 12:43:54;;;;;;;;;;;;;;;26.03;36.35;101011.67;84810;1326;22595;-76
2022/06/11 12:46:03;;;;;;;;;;;;;;;25.92;36.17;101007.06;84804;1326;22571;-75
2022/06/11 12:48:22;;;;;;;;;;;;;;;25.82;35.75;101005.19;84824;1325;23768;-76
2022/06/11 12:50:36;;;;;;;;;;;;;;;25.74;36.15;101007.84;84814;1327;22577;-77
2022/06/11 12:52:44;;;;;;;;;;;;;;;25.80;36.83;101003.61;84800;1325;24418;-77
2022/06/11 12:55:08;;;;;;;;;;;;;;;25.88;36.69;101008.91;84780;1325;23021;-76
2022/06/11 12:57:19;;;;;;;;;;;;;;;25.95;36.97;101007.35;84798;1325;22583;-76
2022/06/11 12:59:41;;;;;;;;;;;;;;;26.03;37.29;101001.10;84791;1329;22630;-77
2022/06/11 13:02:16;;;;;;;;;;;;;;;26.13;37.31;101001.41;84746;1330;24253;-78
2022/06/11 13:04:32;;;;;;;;;;;;;;;26.21;37.23;101003.53;84789;1325;25421;-77
2022/06/11 13:06:43;;;;;;;;;;;;;;;26.17;36.47;101001.67;84799;1326;22584;-76
2022/06/11 13:09:01;;;;;;;;;;;;;;;26.07;35.57;101000.16;84873;1321;22658;-76
2022/06/11 13:11:11;;;;;;;;;;;;;;;25.91;34.77;100995.73;84871;1326;22576;-76
2022/06/11 13:13:53;;;;;;;;;;;;;;;25.79;34.84;100997.42;84831;1327;23315;-76
2022/06/11 13:16:10;;;;;;;;;;;;;;;25.68;35.75;100994.10;84817;1325;22596;-76
2022/06/11 13:18:46;;;;;;;;;;;;;;;;;;;;;
2022/06/11 13:20:57;;;;;;;;;;;;;;;25.66;35.71;100995.33;84810;1328;25452;-76
2022/06/11 13:23:03;;;;;;;;;;;;;;;25.64;35.96;100993.77;84905;1328;25488;-76
2022/06/11 13:25:20;;;;;;;;;;;;;;;25.58;35.66;100991.77;84893;1326;25429;-75
2022/06/11 13:27:39;;;;;;;;;;;;;;;25.44;35.83;100987.52;84894;1328;22918;-76
2022/06/11 13:29:47;;;;;;;;;;;;;;;25.35;35.46;100986.90;84875;1325;22868;-76
2022/06/11 13:32:16;;;;;;;;;;;;;;;25.28;36.34;100990.05;84881;1323;22811;-76
2022/06/11 13:38:21;;;;;;;;;;;;;;;25.32;36.86;100986.67;84451;1333;22866;-76
2022/06/11 13:41:31;;;;;;;;;;;;;;;25.34;36.29;100974.21;84629;1329;23944;-76
2022/06/11 13:43:57;;;;;;;;;;;;;;;25.39;36.47;100977.80;84863;1324;22731;-76
2022/06/11 13:46:14;;;;;;;;;;;;;;;25.47;36.52;100982.77;84866;1329;24276;-76
2022/06/11 13:48:32;;;;;;;;;;;;;;;25.53;36.51;100985.83;84891;1326;22602;-76
2022/06/11 13:51:02;;;;;;;;;;;;;;;25.53;36.77;100978.86;84837;1325;22600;-75
2022/06/11 13:55:34;;;;;;;;;;;;;;;25.43;36.16;100979.72;84832;1326;22582;-75
2022/06/11 13:57:55;;;;;;;;;;;;;;;25.35;36.23;100973.14;84811;1329;22927;-77
2022/06/11 14:00:16;;;;;;;;;;;;;;;25.32;36.23;100974.04;84808;1327;23850;-76
2022/06/11 14:02:45;;;;;;;;;;;;;;;25.27;36.36;100974.45;84732;1331;25294;-75
2022/06/11 14:05:24;;;;;;;;;;;;;;;25.18;36.53;100970.61;84941;1327;22691;-76
2022/06/11 14:07:28;;;;;;;;;;;;;;;25.21;37.03;100967.87;84837;1322;22703;-76
2022/06/11 14:11:54;;;;;;;;;;;;;;;25.31;37.42;100966.61;84825;1321;22671;-77
2022/06/11 14:14:26;;;;;;;;;;;;;;;25.34;37.39;100969.70;84893;1326;22632;-77
2022/06/11 14:16:39;;;;;;;;;;;;;;;25.31;37.00;100968.59;85000;1325;22739;-74
2022/06/11 14:18:42;;;;;;;;;;;;;;;25.21;36.81;100965.14;84792;1326;22579;-77
2022/06/11 14:20:50;;;;;;;;;;;;;;;25.15;36.66;100965.86;84733;1331;24038;-78
2022/06/11 14:22:57;;;;;;;;;;;;;;;25.13;37.22;100960.73;84910;1327;22575;-76
2022/06/11 14:25:01;;;;;;;;;;;;;;;25.18;37.79;100961.33;84847;1326;22607;-78
2022/06/11 14:27:30;;;;;;;;;;;;;;;25.27;37.75;100962.72;84875;1327;22574;-77
2022/06/11 14:29:35;;;;;;;;;;;;;;;25.29;37.42;100967.52;84856;1327;22978;-77
2022/06/11 14:31:59;;;;;;;;;;;;;;;25.18;37.11;100965.78;84825;1321;22583;-76
2022/06/11 14:34:09;;;;;;;;;;;;;;;25.12;37.49;100964.92;84851;1326;22675;-76
2022/06/11 14:36:24;;;;;;;;;;;;;;;25.08;37.58;100964.20;84887;1328;22957;-76
2022/06/11 14:38:42;;;;;;;;;;;;;;;25.05;37.52;100966.79;84915;1328;22583;-76
2022/06/11 14:40:46;;;;;;;;;;;;;;;24.91;37.23;100965.30;84887;1326;22583;-74
2022/06/11 14:43:00;;;;;;;;;;;;;;;24.80;37.23;100963.34;84870;1328;24514;-75
2022/06/11 14:45:45;;;;;;;;;;;;;;;24.73;37.02;100962.13;84883;1327;24271;-75
2022/06/11 14:47:54;;;;;;;;;;;;;;;24.67;37.10;100958.18;84857;1327;22608;-75
2022/06/11 14:49:57;;;;;;;;;;;;;;;24.68;37.65;100957.21;84925;1326;22588;-75
2022/06/11 14:52:35;;;;;;;;;;;;;;;24.66;38.09;100955.90;84903;1329;22589;-75
2022/06/11 14:54:40;;;;;;;;;;;;;;;24.68;37.94;100959.16;84890;1330;22643;-76
2022/06/11 14:57:11;;;;;;;;;;;;;;;24.60;37.48;100956.11;84908;1326;22633;-76
2022/06/11 14:59:32;;;;;;;;;;;;;;;24.44;37.49;100960.73;84892;1326;22589;-75
2022/06/11 15:01:54;;;;;;;;;;;;;;;24.25;38.05;100959.51;84886;1327;25427;-75
2022/06/11 15:04:14;;;;;;;;;;;;;;;24.14;38.28;100956.83;84909;1326;22626;-75
2022/06/11 15:06:36;;;;;;;;;;;;;;;24.09;38.73;100956.58;84920;1322;22803;-75
2022/06/11 15:08:59;;;;;;;;;;;;;;;24.03;38.56;100955.48;84900;1330;22770;-75
2022/06/11 15:11:04;;;;;;;;;;;;;;;23.96;38.74;100952.35;84909;1326;22710;-75
2022/06/11 15:13:48;;;;;;;;;;;;;;;23.92;39.11;100952.70;84894;1328;22595;-75
2022/06/11 15:15:55;;;;;;;;;;;;;;;23.86;39.33;100952.98;84881;1330;22578;-75
2022/06/11 15:18:08;;;;;;;;;;;;;;;23.79;39.21;100948.27;84898;1325;23822;-74
2022/06/11 15:20:20;;;;;;;;;;;;;;;23.70;39.23;100944.20;84897;1327;22631;-75
2022/06/11 15:22:30;;;;;;;;;;;;;;;23.65;39.22;100942.67;84809;1328;22995;-75
2022/06/11 15:24:38;;;;;;;;;;;;;;;23.60;39.35;100937.03;84889;1326;22680;-76
2022/06/11 15:26:43;;;;;;;;;;;;;;;23.56;39.51;100938.63;84894;1330;22642;-75
2022/06/11 15:29:06;;;;;;;;;;;;;;;23.55;39.76;100939.23;84887;1327;22945;-75
2022/06/11 15:31:10;;;;;;;;;;;;;;;23.51;39.85;100939.55;84918;1326;22600;-75
2022/06/11 15:33:27;;;;;;;;;;;;;;;23.49;39.88;100941.86;84885;1330;23129;-76
2022/06/11 15:35:34;;;;;;;;;;;;;;;23.51;40.21;100936.16;84903;1330;24283;-76
2022/06/11 15:37:39;;;;;;;;;;;;;;;23.53;40.03;100941.35;84872;1329;23103;-76
2022/06/11 15:39:44;;;;;;;;;;;;;;;23.51;40.33;100945.27;84881;1330;22567;-76
2022/06/11 15:41:48;;;;;;;;;;;;;;;23.48;40.34;100944.80;84895;1326;22591;-76
2022/06/11 15:43:53;;;;;;;;;;;;;;;23.43;40.42;100948.02;84872;1327;22750;-75
2022/06/11 15:46:00;;;;;;;;;;;;;;;23.41;40.60;100948.21;84860;1326;22593;-75
2022/06/11 15:48:07;;;;;;;;;;;;;;;23.38;40.32;100943.14;84854;1330;22598;-75
2022/06/11 15:50:16;;;;;;;;;;;;;;;23.31;40.41;100941.38;84904;1329;22576;-75
2022/06/11 15:52:29;;;;;;;;;;;;;;;23.28;40.66;100938.29;84904;1327;23955;-76
2022/06/11 15:56:55;;;;;;;;;;;;;;;23.18;40.85;100931.77;84893;1330;22554;-75
2022/06/11 15:59:09;;;;;;;;;;;;;;;23.11;40.86;100930.21;84883;1327;22693;-75
2022/06/11 16:01:14;;;;;;;;;;;;;;;23.05;40.83;100926.61;84918;1330;22700;-75
2022/06/11 16:03:23;;;;;;;;;;;;;;;22.99;40.99;100924.23;84871;1326;22575;-75
2022/06/11 16:05:27;;;;;;;;;;;;;;;22.93;41.34;100926.17;84834;1330;22588;-75
2022/06/11 16:07:30;;;;;;;;;;;;;;;22.88;41.29;100927.97;84860;1326;22569;-75
2022/06/11 16:09:36;;;;;;;;;;;;;;;22.85;41.64;100926.61;84888;1328;22933;-75
2022/06/11 16:11:48;;;;;;;;;;;;;;;22.83;41.86;100929.60;84865;1326;22559;-75
2022/06/11 16:14:00;;;;;;;;;;;;;;;22.81;42.05;100929.75;84879;1327;22745;-76
2022/06/11 16:16:21;;;;;;;;;;;;;;;22.76;42.10;100932.86;84861;1330;24263;-76
2022/06/11 16:18:30;;;;;;;;;;;;;;;22.72;42.45;100928.91;84886;1328;22630;-76
2022/06/11 16:20:35;;;;;;;;;;;;;;;22.69;42.67;100930.73;84899;1327;22770;-75
2022/06/11 16:22:40;;;;;;;;;;;;;;;22.66;42.84;100931.16;84940;1327;22581;-75
2022/06/11 16:24:44;;;;;;;;;;;;;;;22.63;42.93;100936.23;84938;1328;22634;-75
2022/06/11 16:26:48;;;;;;;;;;;;;;;22.58;42.91;100937.46;84898;1326;22584;-76
2022/06/11 16:28:54;;;;;;;;;;;;;;;22.54;42.92;100933.22;84863;1326;22510;-76
2022/06/11 16:30:57;;;;;;;;;;;;;;;22.48;43.31;100934.00;84911;1326;25432;-75
2022/06/11 16:33:04;;;;;;;;;;;;;;;22.43;43.57;100931.01;84874;1326;24233;-76
2022/06/11 16:35:14;;;;;;;;;;;;;;;22.37;43.56;100932.17;84808;1327;22568;-75
2022/06/11 16:37:20;;;;;;;;;;;;;;;22.33;43.70;100934.66;84879;1325;22581;-75
2022/06/11 16:39:34;;;;;;;;;;;;;;;22.28;43.53;100928.99;84859;1330;22682;-75
2022/06/11 16:44:00;;;;;;;;;;;;;;;22.16;43.56;100929.56;84875;1326;22861;-76
2022/06/11 16:46:04;;;;;;;;;;;;;;;22.11;43.84;100933.33;84859;1329;24342;-76
2022/06/11 16:48:17;;;;;;;;;;;;;;;22.05;43.81;100933.80;84836;1330;22854;-75
2022/06/11 16:57:31;;;;;;;;;;;;;;;21.80;44.70;100931.64;84892;1330;25217;-76
2022/06/11 16:59:38;;;;;;;;;;;;;;;21.75;44.97;100930.42;84858;1327;22580;-75
2022/06/11 17:01:43;;;;;;;;;;;;;;;21.70;45.05;100930.61;84862;1330;22603;-75
2022/06/11 17:03:48;;;;;;;;;;;;;;;21.66;45.18;100936.79;84858;1325;22683;-76
2022/06/11 17:05:52;;;;;;;;;;;;;;;21.62;45.29;100933.73;84835;1327;22580;-76
2022/06/11 17:07:59;;;;;;;;;;;;;;;21.57;45.23;100931.27;84834;1328;22537;-76
2022/06/11 17:10:04;;;;;;;;;;;;;;;21.53;45.40;100935.44;84831;1326;22626;-76
2022/06/11 17:12:19;;;;;;;;;;;;;;;21.49;45.56;100936.07;84831;1329;24355;-75
2022/06/11 17:14:31;;;;;;;;;;;;;;;21.45;45.47;100937.30;84885;1327;22612;-76
2022/06/11 17:16:34;;;;;;;;;;;;;;;21.42;45.81;100936.09;84989;1328;22610;-76
2022/06/11 17:18:39;;;;;;;;;;;;;;;21.38;45.78;100934.96;84853;1325;25911;-75
2022/06/11 17:20:50;;;;;;;;;;;;;;;21.34;45.84;100938.41;84871;1326;22616;-76
2022/06/11 17:22:57;;;;;;;;;;;;;;;21.31;45.93;100938.30;84852;1326;23906;-75
2022/06/11 17:25:03;;;;;;;;;;;;;;;21.29;46.08;100937.23;84840;1322;22583;-75
2022/06/11 17:27:15;;;;;;;;;;;;;;;21.25;46.41;100940.36;84823;1329;22635;-76
2022/06/11 17:29:21;;;;;;;;;;;;;;;21.20;46.40;100944.27;84820;1325;22583;-76
2022/06/11 17:31:27;;;;;;;;;;;;;;;21.16;46.61;100940.83;84804;1326;24293;-75
2022/06/11 17:33:31;;;;;;;;;;;;;;;21.12;46.83;100943.20;84825;1328;22596;-76
2022/06/11 17:35:34;;;;;;;;;;;;;;;21.08;46.93;100943.15;84802;1329;25421;-76
2022/06/11 17:37:40;;;;;;;;;;;;;;;21.05;47.05;100941.65;84819;1327;22582;-76
2022/06/11 17:39:44;;;;;;;;;;;;;;;21.00;47.29;100943.95;84807;1325;22746;-77
2022/06/11 17:41:48;;;;;;;;;;;;;;;20.96;47.49;100945.29;84814;1326;24321;-77
2022/06/11 17:43:52;;;;;;;;;;;;;;;20.92;47.65;100946.98;84755;1327;22794;-76
2022/06/11 17:45:55;;;;;;;;;;;;;;;20.88;47.82;100952.25;84816;1329;22691;-76
2022/06/11 17:47:58;;;;;;;;;;;;;;;20.82;48.12;100949.47;84791;1330;24374;-75
2022/06/11 17:50:01;;;;;;;;;;;;;;;20.76;48.32;100950.61;84808;1325;22576;-75
2022/06/11 17:52:08;;;;;;;;;;;;;;;20.70;48.41;100951.05;84825;1327;22611;-75
2022/06/11 17:54:18;;;;;;;;;;;;;;;20.67;48.45;100952.16;84799;1330;24312;-76
2022/06/11 17:56:22;;;;;;;;;;;;;;;20.64;48.63;100953.43;84820;1328;22617;-76
2022/06/11 17:58:25;;;;;;;;;;;;;;;20.59;48.71;100952.17;84826;1328;22648;-76
2022/06/11 18:00:30;;;;;;;;;;;;;;;20.54;48.98;100951.14;84787;1326;23955;-75
2022/06/11 18:02:35;;;;;;;;;;;;;;;20.48;49.26;100952.61;84803;1330;25302;-75
2022/06/11 18:04:39;;;;;;;;;;;;;;;20.42;49.45;100952.30;84788;1326;22600;-74
2022/06/11 18:06:42;;;;;;;;;;;;;;;20.36;49.72;100956.08;84794;1328;25236;-76
2022/06/11 18:08:45;;;;;;;;;;;;;;;20.30;49.94;100959.30;84817;1323;22583;-76
2022/06/11 18:10:49;;;;;;;;;;;;;;;20.26;49.86;100956.63;84821;1326;24127;-77
2022/06/11 18:12:52;;;;;;;;;;;;;;;20.21;50.04;100961.05;84776;1330;25435;-77
2022/06/11 18:14:56;;;;;;;;;;;;;;;20.15;50.24;100958.47;84840;1329;22661;-76
2022/06/11 18:16:59;;;;;;;;;;;;;;;20.06;50.68;100964.49;84783;1328;22577;-77
2022/06/11 18:19:02;;;;;;;;;;;;;;;19.98;51.51;100963.51;84831;1326;23823;-76
2022/06/11 18:21:07;;;;;;;;;;;;;;;19.88;52.12;100966.48;84817;1327;22580;-75
2022/06/11 18:25:32;;;;;;;;;;;;;;;19.70;53.16;100968.95;84813;1325;22571;-78
2022/06/11 18:27:36;;;;;;;;;;;;;;;19.61;53.82;100970.58;84806;1329;22589;-76
2022/06/11 18:29:40;;;;;;;;;;;;;;;19.50;54.27;100970.92;84846;1327;22612;-77
2022/06/11 18:31:43;;;;;;;;;;;;;;;19.39;54.81;100975.68;84818;1328;22556;-78
2022/06/11 18:33:46;;;;;;;;;;;;;;;19.30;55.06;100975.78;84808;1323;24292;-74
2022/06/11 18:35:50;;;;;;;;;;;;;;;19.20;55.25;100978.52;84885;1327;22586;-76
2022/06/11 18:37:54;;;;;;;;;;;;;;;19.12;55.38;100983.83;84863;1329;24197;-76
2022/06/11 18:39:57;;;;;;;;;;;;;;;19.03;55.73;100985.80;84792;1329;22586;-75
2022/06/11 18:42:00;;;;;;;;;;;;;;;18.94;56.17;100986.38;84881;1329;22798;-75
2022/06/11 18:44:04;;;;;;;;;;;;;;;18.83;56.53;100989.39;84855;1329;23104;-77
2022/06/11 18:46:07;;;;;;;;;;;;;;;18.73;56.62;100988.95;84831;1330;22578;-77
2022/06/11 18:48:11;;;;;;;;;;;;;;;18.64;56.73;100989.30;84809;1329;25390;-77
2022/06/11 18:50:14;;;;;;;;;;;;;;;18.55;57.20;100989.16;84798;1329;22596;-76
2022/06/11 18:52:17;;;;;;;;;;;;;;;18.45;57.44;100994.52;84848;1327;22596;-76
2022/06/11 18:54:24;;;;;;;;;;;;;;;18.35;57.86;100991.74;84808;1327;25489;-77
2022/06/11 18:56:27;;;;;;;;;;;;;;;18.26;58.08;100992.98;84781;1326;26078;-76
2022/06/11 18:58:31;;;;;;;;;;;;;;;18.17;58.50;100996.23;84826;1328;22629;-77
2022/06/11 19:00:34;;;;;;;;;;;;;;;18.07;59.08;101000.67;84744;1330;22597;-77
2022/06/11 19:02:41;;;;;;;;;;;;;;;17.98;59.29;101004.36;84803;1328;23372;-74